sensor_id;sensor_type;location;lat;lon;timestamp;pressure;altitude;pressure_sealevel;temperature;humidity
36630;BME280;36256;42.154;23.002;2024-01-30T00:01:10;99123.50;;;2.64;59.58
36630;BME280;36256;42.154;23.002;2024-01-30T00:03:36;99097.84;;;2.52;59.61
36630;BME280;36256;42.154;23.002;2024-01-30T00:06:03;99121.25;;;2.54;59.72
36630;BME280;36256;42.154;23.002;2024-01-30T00:08:30;99094.63;;;2.34;59.99
36630;BME280;36256;42.154;23.002;2024-01-30T00:11:03;99115.63;;;2.51;60.34
36630;BME280;36256;42.154;23.002;2024-01-30T00:13:30;99113.72;;;2.39;60.38
36630;BME280;36256;42.154;23.002;2024-01-30T00:15:57;99105.50;;;2.27;60.70
36630;BME280;36256;42.154;23.002;2024-01-30T00:18:24;99119.59;;;2.22;61.63
36630;BME280;36256;42.154;23.002;2024-01-30T00:20:51;99129.28;;;2.28;61.15
36630;BME280;36256;42.154;23.002;2024-01-30T00:23:17;99125.16;;;2.22;61.67
36630;BME280;36256;42.154;23.002;2024-01-30T00:25:44;99124.81;;;2.23;61.36
36630;BME280;36256;42.154;23.002;2024-01-30T00:28:11;99126.94;;;2.14;61.96
36630;BME280;36256;42.154;23.002;2024-01-30T00:30:37;99124.53;;;2.13;61.89
36630;BME280;36256;42.154;23.002;2024-01-30T00:33:04;99125.44;;;2.17;61.70
36630;BME280;36256;42.154;23.002;2024-01-30T00:35:31;99107.97;;;2.01;61.62
36630;BME280;36256;42.154;23.002;2024-01-30T00:37:58;99135.69;;;2.16;61.84
36630;BME280;36256;42.154;23.002;2024-01-30T00:40:24;99132.03;;;2.12;61.80
36630;BME280;36256;42.154;23.002;2024-01-30T00:42:51;99132.56;;;2.18;61.67
36630;BME280;36256;42.154;23.002;2024-01-30T00:45:18;99113.69;;;2.08;61.63
36630;BME280;36256;42.154;23.002;2024-01-30T00:47:45;99132.09;;;2.16;61.43
36630;BME280;36256;42.154;23.002;2024-01-30T00:50:12;99138.56;;;2.20;61.45
36630;BME280;36256;42.154;23.002;2024-01-30T00:52:38;99140.78;;;2.14;61.68
36630;BME280;36256;42.154;23.002;2024-01-30T00:55:06;99141.38;;;2.08;61.58
36630;BME280;36256;42.154;23.002;2024-01-30T00:57:33;99143.00;;;2.09;61.50
36630;BME280;36256;42.154;23.002;2024-01-30T01:00:00;99143.63;;;2.02;62.06
36630;BME280;36256;42.154;23.002;2024-01-30T01:02:26;99126.19;;;2.02;61.54
36630;BME280;36256;42.154;23.002;2024-01-30T01:04:53;99111.41;;;1.82;61.77
36630;BME280;36256;42.154;23.002;2024-01-30T01:07:20;99132.13;;;1.88;62.60
36630;BME280;36256;42.154;23.002;2024-01-30T01:09:47;99136.44;;;1.86;62.52
36630;BME280;36256;42.154;23.002;2024-01-30T01:12:14;99128.59;;;1.76;62.35
36630;BME280;36256;42.154;23.002;2024-01-30T01:14:40;99120.50;;;1.83;62.12
36630;BME280;36256;42.154;23.002;2024-01-30T01:17:08;99129.47;;;1.92;61.71
36630;BME280;36256;42.154;23.002;2024-01-30T01:19:35;99127.41;;;1.89;61.89
36630;BME280;36256;42.154;23.002;2024-01-30T01:22:02;99128.00;;;1.82;61.74
36630;BME280;36256;42.154;23.002;2024-01-30T01:24:32;99125.34;;;1.86;62.13
36630;BME280;36256;42.154;23.002;2024-01-30T01:26:59;99123.28;;;1.83;61.63
36630;BME280;36256;42.154;23.002;2024-01-30T01:29:26;99112.22;;;1.83;61.79
36630;BME280;36256;42.154;23.002;2024-01-30T01:31:55;99102.75;;;1.84;61.41
36630;BME280;36256;42.154;23.002;2024-01-30T01:34:23;99121.25;;;1.95;61.09
36630;BME280;36256;42.154;23.002;2024-01-30T01:36:56;99123.03;;;1.88;61.09
36630;BME280;36256;42.154;23.002;2024-01-30T01:39:23;99129.63;;;1.83;61.01
36630;BME280;36256;42.154;23.002;2024-01-30T01:41:50;99116.84;;;1.79;61.25
36630;BME280;36256;42.154;23.002;2024-01-30T01:44:17;99114.53;;;1.81;61.29
36630;BME280;36256;42.154;23.002;2024-01-30T01:46:45;99118.25;;;1.73;61.87
36630;BME280;36256;42.154;23.002;2024-01-30T01:49:12;99122.97;;;1.72;61.44
36630;BME280;36256;42.154;23.002;2024-01-30T01:51:39;99120.44;;;1.67;61.61
36630;BME280;36256;42.154;23.002;2024-01-30T01:54:08;99137.31;;;1.62;61.93
36630;BME280;36256;42.154;23.002;2024-01-30T01:56:35;99141.22;;;1.73;61.69
36630;BME280;36256;42.154;23.002;2024-01-30T01:59:06;99140.41;;;1.73;61.64
36630;BME280;36256;42.154;23.002;2024-01-30T02:01:36;99129.09;;;1.66;61.48
36630;BME280;36256;42.154;23.002;2024-01-30T02:04:04;99119.22;;;1.65;61.56
36630;BME280;36256;42.154;23.002;2024-01-30T02:06:32;99143.91;;;1.85;61.52
36630;BME280;36256;42.154;23.002;2024-01-30T02:08:58;99141.22;;;1.73;62.17
36630;BME280;36256;42.154;23.002;2024-01-30T02:11:25;99135.75;;;1.77;60.99
36630;BME280;36256;42.154;23.002;2024-01-30T02:13:52;99134.13;;;1.76;61.37
36630;BME280;36256;42.154;23.002;2024-01-30T02:16:19;99132.53;;;1.75;61.33
36630;BME280;36256;42.154;23.002;2024-01-30T02:18:45;99122.88;;;1.69;61.18
36630;BME280;36256;42.154;23.002;2024-01-30T02:21:15;99130.22;;;1.77;60.48
36630;BME280;36256;42.154;23.002;2024-01-30T02:23:43;99140.09;;;1.62;61.46
36630;BME280;36256;42.154;23.002;2024-01-30T02:26:10;99132.84;;;1.57;61.36
36630;BME280;36256;42.154;23.002;2024-01-30T02:28:38;99130.28;;;1.52;61.64
36630;BME280;36256;42.154;23.002;2024-01-30T02:31:05;99123.44;;;1.34;62.01
36630;BME280;36256;42.154;23.002;2024-01-30T02:33:32;99118.59;;;1.43;62.13
36630;BME280;36256;42.154;23.002;2024-01-30T02:35:59;99137.09;;;1.55;61.93
36630;BME280;36256;42.154;23.002;2024-01-30T02:38:26;99132.94;;;1.61;61.89
36630;BME280;36256;42.154;23.002;2024-01-30T02:40:53;99127.75;;;1.59;61.11
36630;BME280;36256;42.154;23.002;2024-01-30T02:43:20;99132.03;;;1.57;61.59
36630;BME280;36256;42.154;23.002;2024-01-30T02:45:46;99132.47;;;1.59;61.64
36630;BME280;36256;42.154;23.002;2024-01-30T02:48:13;99132.50;;;1.47;61.68
36630;BME280;36256;42.154;23.002;2024-01-30T02:50:40;99130.81;;;1.30;61.91
36630;BME280;36256;42.154;23.002;2024-01-30T02:53:07;99127.34;;;1.33;62.44
36630;BME280;36256;42.154;23.002;2024-01-30T02:55:33;99126.78;;;1.28;62.83
36630;BME280;36256;42.154;23.002;2024-01-30T02:58:00;99128.75;;;1.27;63.51
36630;BME280;36256;42.154;23.002;2024-01-30T03:00:27;99114.47;;;1.25;62.79
36630;BME280;36256;42.154;23.002;2024-01-30T03:02:53;99121.81;;;1.33;62.52
36630;BME280;36256;42.154;23.002;2024-01-30T03:05:20;99124.72;;;1.25;63.04
36630;BME280;36256;42.154;23.002;2024-01-30T03:07:47;99122.66;;;1.22;63.23
36630;BME280;36256;42.154;23.002;2024-01-30T03:10:13;99128.28;;;1.25;63.14
36630;BME280;36256;42.154;23.002;2024-01-30T03:12:40;99118.84;;;1.14;62.62
36630;BME280;36256;42.154;23.002;2024-01-30T03:15:07;99120.72;;;1.22;63.22
36630;BME280;36256;42.154;23.002;2024-01-30T03:17:36;99111.31;;;0.99;64.07
36630;BME280;36256;42.154;23.002;2024-01-30T03:20:04;99108.06;;;0.97;64.24
36630;BME280;36256;42.154;23.002;2024-01-30T03:22:30;99104.38;;;0.93;64.66
36630;BME280;36256;42.154;23.002;2024-01-30T03:24:57;99108.31;;;0.92;65.15
36630;BME280;36256;42.154;23.002;2024-01-30T03:27:24;99098.97;;;0.97;64.21
36630;BME280;36256;42.154;23.002;2024-01-30T03:29:51;99104.16;;;0.98;63.49
36630;BME280;36256;42.154;23.002;2024-01-30T03:32:17;99108.28;;;1.04;63.87
36630;BME280;36256;42.154;23.002;2024-01-30T03:34:44;99117.75;;;1.03;64.52
36630;BME280;36256;42.154;23.002;2024-01-30T03:37:11;99122.56;;;1.06;63.58
36630;BME280;36256;42.154;23.002;2024-01-30T03:39:38;99124.88;;;1.04;63.89
36630;BME280;36256;42.154;23.002;2024-01-30T03:42:05;99121.53;;;0.99;63.67
36630;BME280;36256;42.154;23.002;2024-01-30T03:44:31;99110.59;;;1.02;63.49
36630;BME280;36256;42.154;23.002;2024-01-30T03:46:58;99106.22;;;1.01;63.37
36630;BME280;36256;42.154;23.002;2024-01-30T03:49:25;99100.91;;;0.96;63.42
36630;BME280;36256;42.154;23.002;2024-01-30T03:51:51;99113.34;;;1.02;63.52
36630;BME280;36256;42.154;23.002;2024-01-30T03:54:18;99103.47;;;1.01;62.75
36630;BME280;36256;42.154;23.002;2024-01-30T03:56:45;99105.06;;;1.02;63.02
36630;BME280;36256;42.154;23.002;2024-01-30T03:59:11;99107.84;;;0.90;63.34
36630;BME280;36256;42.154;23.002;2024-01-30T04:01:38;99115.19;;;0.98;63.57
36630;BME280;36256;42.154;23.002;2024-01-30T04:04:05;99116.13;;;1.02;62.71
36630;BME280;36256;42.154;23.002;2024-01-30T04:06:32;99121.28;;;1.04;63.13
36630;BME280;36256;42.154;23.002;2024-01-30T04:08:58;99121.75;;;1.06;62.97
36630;BME280;36256;42.154;23.002;2024-01-30T04:11:25;99115.09;;;0.95;62.58
36630;BME280;36256;42.154;23.002;2024-01-30T04:13:52;99119.00;;;0.94;63.28
36630;BME280;36256;42.154;23.002;2024-01-30T04:16:22;99115.88;;;0.95;62.86
36630;BME280;36256;42.154;23.002;2024-01-30T04:18:50;99125.44;;;0.98;62.57
36630;BME280;36256;42.154;23.002;2024-01-30T04:21:17;99121.41;;;0.95;62.89
36630;BME280;36256;42.154;23.002;2024-01-30T04:23:44;99133.28;;;0.96;63.03
36630;BME280;36256;42.154;23.002;2024-01-30T04:26:11;99123.63;;;0.90;62.57
36630;BME280;36256;42.154;23.002;2024-01-30T04:28:38;99122.34;;;0.87;62.98
36630;BME280;36256;42.154;23.002;2024-01-30T04:31:04;99098.84;;;0.93;62.20
36630;BME280;36256;42.154;23.002;2024-01-30T04:33:31;99109.44;;;0.91;62.11
36630;BME280;36256;42.154;23.002;2024-01-30T04:35:57;99114.75;;;0.84;62.37
36630;BME280;36256;42.154;23.002;2024-01-30T04:38:24;99118.81;;;0.87;63.11
36630;BME280;36256;42.154;23.002;2024-01-30T04:40:51;99111.66;;;0.86;63.01
36630;BME280;36256;42.154;23.002;2024-01-30T04:43:17;99106.69;;;0.91;62.75
36630;BME280;36256;42.154;23.002;2024-01-30T04:45:45;99123.84;;;0.97;62.05
36630;BME280;36256;42.154;23.002;2024-01-30T04:48:12;99120.50;;;0.91;62.09
36630;BME280;36256;42.154;23.002;2024-01-30T04:50:40;99122.03;;;0.89;62.74
36630;BME280;36256;42.154;23.002;2024-01-30T04:53:07;99122.34;;;0.87;62.52
36630;BME280;36256;42.154;23.002;2024-01-30T04:55:35;99119.47;;;0.84;62.16
36630;BME280;36256;42.154;23.002;2024-01-30T04:58:02;99126.50;;;0.69;63.00
36630;BME280;36256;42.154;23.002;2024-01-30T05:00:29;99113.38;;;0.66;63.55
36630;BME280;36256;42.154;23.002;2024-01-30T05:02:56;99137.31;;;0.74;63.72
36630;BME280;36256;42.154;23.002;2024-01-30T05:05:22;99122.34;;;0.51;64.31
36630;BME280;36256;42.154;23.002;2024-01-30T05:07:49;99150.19;;;0.58;64.40
36630;BME280;36256;42.154;23.002;2024-01-30T05:10:16;99150.00;;;0.63;63.98
36630;BME280;36256;42.154;23.002;2024-01-30T05:12:42;99151.25;;;0.65;64.01
36630;BME280;36256;42.154;23.002;2024-01-30T05:15:09;99142.25;;;0.68;63.74
36630;BME280;36256;42.154;23.002;2024-01-30T05:17:36;99153.09;;;0.73;63.69
36630;BME280;36256;42.154;23.002;2024-01-30T05:20:03;99159.06;;;0.63;63.57
36630;BME280;36256;42.154;23.002;2024-01-30T05:22:31;99154.03;;;0.65;63.67
36630;BME280;36256;42.154;23.002;2024-01-30T05:24:58;99158.03;;;0.56;63.88
36630;BME280;36256;42.154;23.002;2024-01-30T05:27:24;99163.41;;;0.40;64.36
36630;BME280;36256;42.154;23.002;2024-01-30T05:29:51;99161.25;;;0.46;63.93
36630;BME280;36256;42.154;23.002;2024-01-30T05:32:18;99158.50;;;0.58;63.97
36630;BME280;36256;42.154;23.002;2024-01-30T05:34:44;99157.91;;;0.52;63.47
36630;BME280;36256;42.154;23.002;2024-01-30T05:37:11;99164.72;;;0.55;64.40
36630;BME280;36256;42.154;23.002;2024-01-30T05:39:43;99158.28;;;0.63;63.90
36630;BME280;36256;42.154;23.002;2024-01-30T05:42:10;99154.03;;;0.65;63.34
36630;BME280;36256;42.154;23.002;2024-01-30T05:44:36;99162.88;;;0.71;62.97
36630;BME280;36256;42.154;23.002;2024-01-30T05:47:03;99160.78;;;0.68;63.32
36630;BME280;36256;42.154;23.002;2024-01-30T05:49:30;99166.56;;;0.75;62.90
36630;BME280;36256;42.154;23.002;2024-01-30T05:51:57;99170.03;;;0.84;62.81
36630;BME280;36256;42.154;23.002;2024-01-30T05:54:24;99171.78;;;0.89;62.32
36630;BME280;36256;42.154;23.002;2024-01-30T05:56:51;99160.25;;;0.87;62.99
36630;BME280;36256;42.154;23.002;2024-01-30T05:59:17;99178.06;;;0.89;62.59
36630;BME280;36256;42.154;23.002;2024-01-30T06:01:48;99170.94;;;0.88;62.35
36630;BME280;36256;42.154;23.002;2024-01-30T06:04:15;99166.91;;;0.86;62.34
36630;BME280;36256;42.154;23.002;2024-01-30T06:06:42;99177.41;;;0.92;62.28
36630;BME280;36256;42.154;23.002;2024-01-30T06:09:09;99168.19;;;1.00;62.11
36630;BME280;36256;42.154;23.002;2024-01-30T06:11:35;99174.41;;;0.97;62.41
36630;BME280;36256;42.154;23.002;2024-01-30T06:14:02;99162.88;;;1.07;61.71
36630;BME280;36256;42.154;23.002;2024-01-30T06:16:29;99170.34;;;1.19;61.68
36630;BME280;36256;42.154;23.002;2024-01-30T06:18:56;99169.75;;;1.37;60.21
36630;BME280;36256;42.154;23.002;2024-01-30T06:21:23;99179.91;;;1.45;60.29
36630;BME280;36256;42.154;23.002;2024-01-30T06:23:50;99149.47;;;1.33;59.86
36630;BME280;36256;42.154;23.002;2024-01-30T06:26:17;99172.03;;;1.59;59.44
36630;BME280;36256;42.154;23.002;2024-01-30T06:28:43;99176.00;;;1.74;58.99
36630;BME280;36256;42.154;23.002;2024-01-30T06:31:10;99174.00;;;1.87;58.40
36630;BME280;36256;42.154;23.002;2024-01-30T06:33:37;99164.75;;;1.95;57.96
36630;BME280;36256;42.154;23.002;2024-01-30T06:36:04;99165.47;;;1.92;58.13
36630;BME280;36256;42.154;23.002;2024-01-30T06:38:31;99153.06;;;2.01;58.20
36630;BME280;36256;42.154;23.002;2024-01-30T06:40:57;99167.66;;;2.14;58.09
36630;BME280;36256;42.154;23.002;2024-01-30T06:43:24;99161.91;;;2.34;56.29
36630;BME280;36256;42.154;23.002;2024-01-30T06:45:51;99160.00;;;2.23;56.94
36630;BME280;36256;42.154;23.002;2024-01-30T06:48:18;99171.13;;;2.38;56.16
36630;BME280;36256;42.154;23.002;2024-01-30T06:50:45;99170.72;;;2.68;54.93
36630;BME280;36256;42.154;23.002;2024-01-30T06:53:12;99164.63;;;2.62;55.36
36630;BME280;36256;42.154;23.002;2024-01-30T06:55:39;99165.97;;;2.68;56.21
36630;BME280;36256;42.154;23.002;2024-01-30T06:58:05;99175.44;;;2.67;55.61
36630;BME280;36256;42.154;23.002;2024-01-30T07:00:32;99161.84;;;2.62;55.76
36630;BME280;36256;42.154;23.002;2024-01-30T07:02:59;99175.81;;;2.66;55.16
36630;BME280;36256;42.154;23.002;2024-01-30T07:05:26;99167.22;;;2.55;55.40
36630;BME280;36256;42.154;23.002;2024-01-30T07:07:52;99167.84;;;2.64;55.05
36630;BME280;36256;42.154;23.002;2024-01-30T07:10:19;99164.91;;;2.57;54.50
36630;BME280;36256;42.154;23.002;2024-01-30T07:12:46;99155.41;;;2.58;54.59
36630;BME280;36256;42.154;23.002;2024-01-30T07:15:13;99169.72;;;2.60;55.15
36630;BME280;36256;42.154;23.002;2024-01-30T07:17:43;99165.59;;;2.54;55.59
36630;BME280;36256;42.154;23.002;2024-01-30T07:20:10;99181.41;;;2.54;56.03
36630;BME280;36256;42.154;23.002;2024-01-30T07:22:43;99169.19;;;2.55;55.21
36630;BME280;36256;42.154;23.002;2024-01-30T07:25:10;99176.97;;;2.80;54.48
36630;BME280;36256;42.154;23.002;2024-01-30T07:27:37;99173.31;;;2.76;55.40
36630;BME280;36256;42.154;23.002;2024-01-30T07:30:04;99161.50;;;2.79;55.30
36630;BME280;36256;42.154;23.002;2024-01-30T07:32:31;99164.09;;;2.88;54.42
36630;BME280;36256;42.154;23.002;2024-01-30T07:34:58;99169.75;;;2.91;55.05
36630;BME280;36256;42.154;23.002;2024-01-30T07:37:34;99160.50;;;3.03;54.55
36630;BME280;36256;42.154;23.002;2024-01-30T07:40:02;99157.78;;;3.22;54.09
36630;BME280;36256;42.154;23.002;2024-01-30T07:42:30;99167.94;;;3.14;54.23
36630;BME280;36256;42.154;23.002;2024-01-30T07:44:57;99162.16;;;3.39;53.53
36630;BME280;36256;42.154;23.002;2024-01-30T07:47:23;99161.97;;;3.66;52.38
36630;BME280;36256;42.154;23.002;2024-01-30T07:49:50;99157.22;;;3.48;53.09
36630;BME280;36256;42.154;23.002;2024-01-30T07:52:18;99154.91;;;3.69;52.56
36630;BME280;36256;42.154;23.002;2024-01-30T07:54:51;99156.81;;;3.65;52.53
36630;BME280;36256;42.154;23.002;2024-01-30T07:57:18;99145.09;;;3.56;51.37
36630;BME280;36256;42.154;23.002;2024-01-30T07:59:45;99155.78;;;3.92;51.77
36630;BME280;36256;42.154;23.002;2024-01-30T08:02:12;99164.28;;;3.99;51.21
36630;BME280;36256;42.154;23.002;2024-01-30T08:04:39;99160.69;;;3.79;51.71
36630;BME280;36256;42.154;23.002;2024-01-30T08:07:06;99168.69;;;3.84;52.38
36630;BME280;36256;42.154;23.002;2024-01-30T08:09:33;99163.94;;;3.66;52.26
36630;BME280;36256;42.154;23.002;2024-01-30T08:12:00;99162.81;;;3.51;52.34
36630;BME280;36256;42.154;23.002;2024-01-30T08:14:27;99159.34;;;3.54;52.47
36630;BME280;36256;42.154;23.002;2024-01-30T08:16:54;99156.63;;;3.58;52.38
36630;BME280;36256;42.154;23.002;2024-01-30T08:19:21;99155.72;;;3.35;52.94
36630;BME280;36256;42.154;23.002;2024-01-30T08:21:48;99149.28;;;3.31;53.33
36630;BME280;36256;42.154;23.002;2024-01-30T08:24:15;99146.13;;;3.32;53.18
36630;BME280;36256;42.154;23.002;2024-01-30T08:26:42;99149.09;;;3.24;53.14
36630;BME280;36256;42.154;23.002;2024-01-30T08:29:08;99148.84;;;3.29;52.80
36630;BME280;36256;42.154;23.002;2024-01-30T08:31:35;99145.75;;;3.14;53.17
36630;BME280;36256;42.154;23.002;2024-01-30T08:34:02;99153.50;;;3.25;52.78
36630;BME280;36256;42.154;23.002;2024-01-30T08:36:29;99146.53;;;3.50;52.49
36630;BME280;36256;42.154;23.002;2024-01-30T08:38:56;99142.59;;;3.51;53.18
36630;BME280;36256;42.154;23.002;2024-01-30T08:41:29;99150.06;;;3.66;52.36
36630;BME280;36256;42.154;23.002;2024-01-30T08:43:56;99144.66;;;3.73;51.88
36630;BME280;36256;42.154;23.002;2024-01-30T08:46:23;99150.06;;;3.66;52.94
36630;BME280;36256;42.154;23.002;2024-01-30T08:48:50;99148.47;;;3.84;52.54
36630;BME280;36256;42.154;23.002;2024-01-30T08:51:17;99157.34;;;4.31;51.47
36630;BME280;36256;42.154;23.002;2024-01-30T08:53:44;99158.03;;;4.66;50.33
36630;BME280;36256;42.154;23.002;2024-01-30T08:56:10;99145.91;;;5.27;50.40
36630;BME280;36256;42.154;23.002;2024-01-30T08:58:37;99140.97;;;5.69;48.50
36630;BME280;36256;42.154;23.002;2024-01-30T09:01:04;99145.41;;;4.95;48.93
36630;BME280;36256;42.154;23.002;2024-01-30T09:03:32;99149.03;;;4.73;50.48
36630;BME280;36256;42.154;23.002;2024-01-30T09:05:59;99151.03;;;4.99;49.24
36630;BME280;36256;42.154;23.002;2024-01-30T09:08:26;99142.63;;;4.95;49.83
36630;BME280;36256;42.154;23.002;2024-01-30T09:10:53;99138.09;;;4.84;49.54
36630;BME280;36256;42.154;23.002;2024-01-30T09:13:20;99136.38;;;4.34;50.77
36630;BME280;36256;42.154;23.002;2024-01-30T09:15:46;99132.31;;;4.09;51.79
36630;BME280;36256;42.154;23.002;2024-01-30T09:18:13;99143.66;;;4.00;51.80
36630;BME280;36256;42.154;23.002;2024-01-30T09:20:40;99141.25;;;3.98;52.23
36630;BME280;36256;42.154;23.002;2024-01-30T09:23:07;99137.28;;;3.99;51.45
36630;BME280;36256;42.154;23.002;2024-01-30T09:25:34;99141.91;;;3.92;52.18
36630;BME280;36256;42.154;23.002;2024-01-30T09:28:01;99138.84;;;4.39;51.85
36630;BME280;36256;42.154;23.002;2024-01-30T09:30:27;99134.09;;;4.85;49.84
36630;BME280;36256;42.154;23.002;2024-01-30T09:32:54;99136.34;;;5.50;49.64
36630;BME280;36256;42.154;23.002;2024-01-30T09:35:21;99136.34;;;7.38;46.20
36630;BME280;36256;42.154;23.002;2024-01-30T09:37:47;99127.41;;;7.72;45.64
36630;BME280;36256;42.154;23.002;2024-01-30T09:40:14;99123.91;;;7.89;44.60
36630;BME280;36256;42.154;23.002;2024-01-30T09:42:47;99115.00;;;7.66;43.84
36630;BME280;36256;42.154;23.002;2024-01-30T09:45:17;99119.03;;;7.79;45.07
36630;BME280;36256;42.154;23.002;2024-01-30T09:47:44;99103.38;;;7.54;45.91
36630;BME280;36256;42.154;23.002;2024-01-30T09:50:13;99106.09;;;7.47;45.67
36630;BME280;36256;42.154;23.002;2024-01-30T09:52:43;99078.84;;;7.26;45.65
36630;BME280;36256;42.154;23.002;2024-01-30T09:55:10;99086.06;;;7.34;45.02
36630;BME280;36256;42.154;23.002;2024-01-30T09:57:37;99088.47;;;7.32;45.82
36630;BME280;36256;42.154;23.002;2024-01-30T10:00:05;99087.50;;;7.07;46.15
36630;BME280;36256;42.154;23.002;2024-01-30T10:02:34;99072.81;;;7.17;45.69
36630;BME280;36256;42.154;23.002;2024-01-30T10:05:02;99073.22;;;7.19;45.47
36630;BME280;36256;42.154;23.002;2024-01-30T10:07:29;99073.22;;;7.19;46.59
36630;BME280;36256;42.154;23.002;2024-01-30T10:09:57;99046.94;;;6.73;45.43
36630;BME280;36256;42.154;23.002;2024-01-30T10:12:29;99078.38;;;6.66;46.31
36630;BME280;36256;42.154;23.002;2024-01-30T10:14:56;99056.22;;;6.84;45.58
36630;BME280;36256;42.154;23.002;2024-01-30T10:17:25;99059.94;;;7.02;46.49
36630;BME280;36256;42.154;23.002;2024-01-30T10:19:59;99047.59;;;7.03;45.39
36630;BME280;36256;42.154;23.002;2024-01-30T10:22:27;99046.78;;;7.06;46.12
36630;BME280;36256;42.154;23.002;2024-01-30T10:24:54;99030.78;;;6.99;45.85
36630;BME280;36256;42.154;23.002;2024-01-30T10:27:28;99030.84;;;7.06;46.51
36630;BME280;36256;42.154;23.002;2024-01-30T10:29:56;99042.84;;;7.14;46.10
36630;BME280;36256;42.154;23.002;2024-01-30T10:32:23;99024.47;;;7.06;45.14
36630;BME280;36256;42.154;23.002;2024-01-30T10:34:50;99035.75;;;7.20;45.39
36630;BME280;36256;42.154;23.002;2024-01-30T10:37:18;99011.84;;;7.30;45.63
36630;BME280;36256;42.154;23.002;2024-01-30T10:39:45;99025.16;;;7.61;44.79
36630;BME280;36256;42.154;23.002;2024-01-30T10:42:13;99011.19;;;7.61;44.55
36630;BME280;36256;42.154;23.002;2024-01-30T10:45:00;99026.03;;;7.79;44.70
36630;BME280;36256;42.154;23.002;2024-01-30T10:47:34;99009.31;;;7.97;44.60
36630;BME280;36256;42.154;23.002;2024-01-30T10:50:02;98991.34;;;7.98;43.55
36630;BME280;36256;42.154;23.002;2024-01-30T10:52:31;98992.56;;;8.14;42.74
36630;BME280;36256;42.154;23.002;2024-01-30T10:54:59;98992.13;;;7.94;43.83
36630;BME280;36256;42.154;23.002;2024-01-30T10:57:26;98992.16;;;8.02;44.63
36630;BME280;36256;42.154;23.002;2024-01-30T10:59:57;98973.31;;;7.77;44.32
36630;BME280;36256;42.154;23.002;2024-01-30T11:02:25;98974.94;;;7.78;43.44
36630;BME280;36256;42.154;23.002;2024-01-30T11:04:56;98970.94;;;7.79;45.14
36630;BME280;36256;42.154;23.002;2024-01-30T11:07:25;98952.16;;;7.76;44.93
36630;BME280;36256;42.154;23.002;2024-01-30T11:09:59;98960.19;;;8.03;43.37
36630;BME280;36256;42.154;23.002;2024-01-30T11:12:31;98965.81;;;8.20;43.95
36630;BME280;36256;42.154;23.002;2024-01-30T11:15:07;98944.28;;;8.35;42.95
36630;BME280;36256;42.154;23.002;2024-01-30T11:20:16;98945.44;;;8.06;43.45
36630;BME280;36256;42.154;23.002;2024-01-30T11:22:45;98937.44;;;7.93;44.20
36630;BME280;36256;42.154;23.002;2024-01-30T11:25:13;98937.03;;;8.09;41.63
36630;BME280;36256;42.154;23.002;2024-01-30T11:27:41;98937.50;;;8.29;43.92
36630;BME280;36256;42.154;23.002;2024-01-30T11:30:09;98945.09;;;8.42;44.43
36630;BME280;36256;42.154;23.002;2024-01-30T11:32:36;98937.09;;;8.48;42.61
36630;BME280;36256;42.154;23.002;2024-01-30T11:35:04;98929.50;;;8.48;43.13
36630;BME280;36256;42.154;23.002;2024-01-30T11:37:37;98932.28;;;8.45;44.38
36630;BME280;36256;42.154;23.002;2024-01-30T11:40:05;98926.69;;;8.52;43.39
36630;BME280;36256;42.154;23.002;2024-01-30T11:42:32;98921.47;;;8.75;43.82
36630;BME280;36256;42.154;23.002;2024-01-30T11:44:59;98914.63;;;8.90;42.63
36630;BME280;36256;42.154;23.002;2024-01-30T11:47:27;98910.66;;;8.84;43.08
36630;BME280;36256;42.154;23.002;2024-01-30T11:49:54;98923.47;;;8.78;42.81
36630;BME280;36256;42.154;23.002;2024-01-30T11:52:25;98907.47;;;8.82;41.62
36630;BME280;36256;42.154;23.002;2024-01-30T11:54:53;98883.50;;;8.67;42.83
36630;BME280;36256;42.154;23.002;2024-01-30T11:57:19;98901.88;;;8.72;42.21
36630;BME280;36256;42.154;23.002;2024-01-30T11:59:46;98900.69;;;8.58;43.19
36630;BME280;36256;42.154;23.002;2024-01-30T12:02:16;98886.72;;;8.51;43.50
36630;BME280;36256;42.154;23.002;2024-01-30T12:04:44;98897.91;;;8.51;42.99
36630;BME280;36256;42.154;23.002;2024-01-30T12:07:11;98893.91;;;8.52;42.58
36630;BME280;36256;42.154;23.002;2024-01-30T12:09:38;98903.88;;;8.64;42.32
36630;BME280;36256;42.154;23.002;2024-01-30T12:12:06;98903.50;;;8.41;42.38
36630;BME280;36256;42.154;23.002;2024-01-30T12:14:33;98896.31;;;8.54;43.97
36630;BME280;36256;42.154;23.002;2024-01-30T12:17:00;98904.28;;;8.69;41.86
36630;BME280;36256;42.154;23.002;2024-01-30T12:19:26;98894.34;;;8.40;42.83
36630;BME280;36256;42.154;23.002;2024-01-30T12:21:55;98896.72;;;8.07;42.19
36630;BME280;36256;42.154;23.002;2024-01-30T12:24:23;98875.16;;;7.89;43.56
36630;BME280;36256;42.154;23.002;2024-01-30T12:26:50;98882.69;;;7.71;44.29
36630;BME280;36256;42.154;23.002;2024-01-30T12:29:20;98876.69;;;7.52;45.17
36630;BME280;36256;42.154;23.002;2024-01-30T12:31:48;98864.66;;;7.34;45.10
36630;BME280;36256;42.154;23.002;2024-01-30T12:34:14;98867.03;;;7.32;44.16
36630;BME280;36256;42.154;23.002;2024-01-30T12:36:44;98870.50;;;6.97;46.58
36630;BME280;36256;42.154;23.002;2024-01-30T12:39:11;98862.63;;;7.27;46.33
36630;BME280;36256;42.154;23.002;2024-01-30T12:41:40;98857.16;;;7.69;45.53
36630;BME280;36256;42.154;23.002;2024-01-30T12:44:07;98849.19;;;7.85;45.07
36630;BME280;36256;42.154;23.002;2024-01-30T12:46:34;98854.75;;;8.03;45.09
36630;BME280;36256;42.154;23.002;2024-01-30T12:49:01;98859.94;;;8.15;44.80
36630;BME280;36256;42.154;23.002;2024-01-30T12:51:28;98859.56;;;8.10;45.29
36630;BME280;36256;42.154;23.002;2024-01-30T12:53:55;98846.78;;;7.84;44.13
36630;BME280;36256;42.154;23.002;2024-01-30T12:56:22;98860.31;;;7.50;45.16
36630;BME280;36256;42.154;23.002;2024-01-30T12:58:49;98855.50;;;7.40;44.38
36630;BME280;36256;42.154;23.002;2024-01-30T13:01:19;98850.69;;;7.30;45.76
36630;BME280;36256;42.154;23.002;2024-01-30T13:03:46;98852.34;;;7.45;45.74